createdAt,value
2023-05-09T00:00:00.868Z,23.60
2023-05-09T00:10:05.583Z,22.60
2023-05-09T00:20:10.251Z,20.40
2023-05-09T00:30:13.441Z,15.30
2023-05-09T00:40:17.599Z,12.20
2023-05-09T00:50:24.964Z,10.30
2023-05-09T01:00:28.861Z,22.70
2023-05-09T01:10:37.733Z,18.10
2023-05-09T01:20:44.161Z,20.60
2023-05-09T01:30:47.545Z,16.80
2023-05-09T01:40:54.700Z,13.70
2023-05-09T01:51:00.395Z,13.20
2023-05-09T02:01:04.208Z,20.80
2023-05-09T02:11:07.585Z,28.20
2023-05-09T02:21:11.566Z,27.30
2023-05-09T02:31:17.902Z,22.90
2023-05-09T02:41:22.216Z,16.70
2023-05-09T02:51:26.070Z,14.40
2023-05-09T03:01:30.001Z,19.60
2023-05-09T03:11:36.131Z,24.40
2023-05-09T03:21:39.921Z,25.00
2023-05-09T03:31:43.641Z,13.40
2023-05-09T03:41:48.348Z,11.80
2023-05-09T03:51:52.017Z,19.70
2023-05-09T04:01:55.828Z,18.60
2023-05-09T04:12:02.996Z,17.90
2023-05-09T04:22:06.685Z,20.80
2023-05-09T04:32:11.444Z,15.70
2023-05-09T04:42:15.198Z,14.90
2023-05-09T04:52:22.123Z,13.80
2023-05-09T05:02:26.081Z,12.60
2023-05-09T05:12:30.469Z,14.60
2023-05-09T05:22:38.260Z,14.70
2023-05-09T05:32:43.045Z,11.40
2023-05-09T05:52:50.509Z,15.90
2023-05-09T06:02:54.205Z,14.30
2023-05-09T06:12:57.968Z,12.60
2023-05-09T06:23:01.627Z,11.90
2023-05-09T06:33:05.638Z,11.10
2023-05-09T06:43:09.827Z,14.70
2023-05-09T06:53:13.638Z,13.20
2023-05-09T07:03:17.374Z,12.20
2023-05-09T07:13:21.296Z,10.50
2023-05-09T07:23:26.600Z,13.30
2023-05-09T07:33:29.778Z,9.60
2023-05-09T07:43:33.582Z,16.50
2023-05-09T07:53:37.236Z,19.50
2023-05-09T08:03:41.400Z,9.50
2023-05-09T08:25:40.300Z,11.90
2023-05-09T08:35:44.251Z,12.70
2023-05-09T08:45:51.188Z,16.40
2023-05-09T08:55:58.814Z,11.00
2023-05-09T09:06:03.018Z,7.40
2023-05-09T09:16:09.590Z,8.00
2023-05-09T09:26:13.794Z,10.50
2023-05-09T09:36:26.470Z,7.20
2023-05-09T09:46:31.547Z,11.20
2023-05-09T09:56:41.199Z,10.50
2023-05-09T10:06:52.560Z,6.40
2023-05-09T10:16:57.200Z,6.80
2023-05-09T10:27:06.532Z,8.90
2023-05-09T10:37:11.203Z,8.90
2023-05-09T10:47:15.865Z,7.90
2023-05-09T10:57:19.621Z,4.60
2023-05-09T11:07:27.757Z,11.90
2023-05-09T11:17:38.060Z,3.30
2023-05-09T11:27:41.986Z,6.80
2023-05-09T11:37:48.350Z,6.90
2023-05-09T11:47:53.664Z,6.20
2023-05-09T11:58:01.051Z,4.40
2023-05-09T12:08:04.993Z,5.40
2023-05-09T12:28:13.832Z,7.00
2023-05-09T12:38:22.033Z,5.90
2023-05-09T12:48:26.264Z,5.30
2023-05-09T12:58:30.126Z,3.70
2023-05-09T13:08:34.115Z,3.30
2023-05-09T13:18:37.946Z,9.60
2023-05-09T13:28:41.548Z,4.30
2023-05-09T13:38:45.727Z,5.20
2023-05-09T13:48:49.542Z,4.80
2023-05-09T13:58:53.220Z,7.60
2023-05-09T14:08:57.732Z,10.50
2023-05-09T14:19:01.661Z,4.10
2023-05-09T14:29:06.662Z,13.50
2023-05-09T14:39:10.457Z,4.90
2023-05-09T14:49:38.337Z,13.90
2023-05-09T14:59:42.445Z,9.60
2023-05-09T15:09:46.674Z,9.80
2023-05-09T15:19:50.569Z,3.40
2023-05-09T15:29:54.772Z,16.00
2023-05-09T15:40:03.775Z,8.40
2023-05-09T15:50:09.726Z,5.20
2023-05-09T16:00:15.969Z,6.00
2023-05-09T16:10:20.425Z,7.30
2023-05-09T16:20:24.581Z,4.90
2023-05-09T16:30:27.090Z,6.00
2023-05-09T16:40:31.019Z,5.50
2023-05-09T16:50:35.524Z,6.40
2023-05-09T17:00:39.163Z,15.40
2023-05-09T17:11:08.264Z,6.30
2023-05-09T17:21:12.731Z,7.00
2023-05-09T17:31:16.486Z,10.90
2023-05-09T17:41:20.355Z,15.90
2023-05-09T17:51:23.996Z,7.20
2023-05-09T18:01:27.640Z,14.70
2023-05-09T18:11:31.423Z,9.10
2023-05-09T18:21:34.939Z,13.00
2023-05-09T18:31:42.407Z,9.90
2023-05-09T18:41:55.488Z,10.30
2023-05-09T18:51:59.645Z,9.10
2023-05-09T19:02:03.749Z,8.10
2023-05-09T19:12:09.098Z,11.30
2023-05-09T19:22:16.216Z,8.20
2023-05-09T19:32:19.410Z,14.90
2023-05-09T19:42:22.672Z,16.40
2023-05-09T19:52:26.096Z,12.40
2023-05-09T20:02:33.674Z,17.30
2023-05-09T20:12:37.481Z,22.00
2023-05-09T20:22:41.196Z,15.40
2023-05-09T20:32:45.276Z,18.00
2023-05-09T20:42:49.369Z,15.80
2023-05-09T20:52:53.615Z,12.30
2023-05-09T21:02:58.866Z,16.40
2023-05-09T21:13:03.963Z,14.60
2023-05-09T21:23:11.404Z,7.90
2023-05-09T21:33:15.090Z,12.40
2023-05-09T21:43:19.656Z,10.20
2023-05-09T21:53:23.359Z,8.40
2023-05-09T22:03:28.215Z,8.90
2023-05-09T22:14:00.422Z,9.80
2023-05-09T22:24:04.848Z,8.30
2023-05-09T22:34:08.483Z,10.30
2023-05-09T22:44:12.159Z,13.20
2023-05-09T22:54:21.386Z,7.90
2023-05-09T23:04:25.171Z,9.30
2023-05-09T23:14:29.032Z,9.90
2023-05-09T23:24:33.595Z,10.10
2023-05-09T23:34:37.345Z,10.50
2023-05-09T23:44:41.660Z,10.60
2023-05-09T23:54:46.004Z,6.80
